sensor_id;sensor_type;location;lat;lon;timestamp;pressure;altitude;pressure_sealevel;temperature;humidity
56292;BME280;54008;53.606;9.462;2022-08-11T00:01:25;102520.13;;;17.93;100.00
56292;BME280;54008;53.606;9.462;2022-08-11T00:03:56;102518.19;;;17.94;100.00
56292;BME280;54008;53.606;9.462;2022-08-11T00:06:31;102515.53;;;17.87;100.00
56292;BME280;54008;53.606;9.462;2022-08-11T00:08:58;102520.72;;;17.84;100.00
56292;BME280;54008;53.606;9.462;2022-08-11T00:11:35;102521.22;;;17.81;100.00
56292;BME280;54008;53.606;9.462;2022-08-11T00:14:02;102521.09;;;17.87;100.00
56292;BME280;54008;53.606;9.462;2022-08-11T00:16:29;102516.03;;;17.84;100.00
56292;BME280;54008;53.606;9.462;2022-08-11T00:18:55;102518.56;;;17.86;100.00
56292;BME280;54008;53.606;9.462;2022-08-11T00:21:23;102524.34;;;17.73;100.00
56292;BME280;54008;53.606;9.462;2022-08-11T00:23:59;102513.63;;;17.76;100.00
56292;BME280;54008;53.606;9.462;2022-08-11T00:26:26;102517.59;;;17.68;100.00
56292;BME280;54008;53.606;9.462;2022-08-11T00:28:53;102521.47;;;17.67;100.00
56292;BME280;54008;53.606;9.462;2022-08-11T00:31:30;102517.97;;;17.60;100.00
56292;BME280;54008;53.606;9.462;2022-08-11T00:33:57;102527.38;;;17.36;100.00
56292;BME280;54008;53.606;9.462;2022-08-11T00:36:28;102518.69;;;17.32;100.00
56292;BME280;54008;53.606;9.462;2022-08-11T00:39:02;102522.94;;;17.11;100.00
56292;BME280;54008;53.606;9.462;2022-08-11T00:44:31;102526.06;;;17.15;100.00
56292;BME280;54008;53.606;9.462;2022-08-11T00:47:16;102527.88;;;17.21;100.00
56292;BME280;54008;53.606;9.462;2022-08-11T00:52:23;102520.25;;;16.93;100.00
56292;BME280;54008;53.606;9.462;2022-08-11T01:01:18;102516.78;;;16.67;100.00
56292;BME280;54008;53.606;9.462;2022-08-11T01:07:19;102529.88;;;16.79;100.00
56292;BME280;54008;53.606;9.462;2022-08-11T01:10:22;102523.13;;;16.56;100.00
56292;BME280;54008;53.606;9.462;2022-08-11T01:13:04;102535.31;;;16.55;100.00
56292;BME280;54008;53.606;9.462;2022-08-11T01:16:10;102528.72;;;16.68;100.00
56292;BME280;54008;53.606;9.462;2022-08-11T01:18:52;102528.97;;;16.66;100.00
56292;BME280;54008;53.606;9.462;2022-08-11T01:24:52;102534.22;;;16.56;100.00
56292;BME280;54008;53.606;9.462;2022-08-11T01:30:53;102531.13;;;16.64;100.00
56292;BME280;54008;53.606;9.462;2022-08-11T01:34:01;102535.53;;;16.54;100.00
56292;BME280;54008;53.606;9.462;2022-08-11T01:36:49;102529.94;;;16.42;100.00
56292;BME280;54008;53.606;9.462;2022-08-11T01:45:41;102539.47;;;16.46;100.00
56292;BME280;54008;53.606;9.462;2022-08-11T01:54:08;102531.91;;;16.23;100.00
56292;BME280;54008;53.606;9.462;2022-08-11T01:59:35;102535.41;;;16.18;100.00
56292;BME280;54008;53.606;9.462;2022-08-11T02:02:21;102530.94;;;16.17;100.00
56292;BME280;54008;53.606;9.462;2022-08-11T02:05:16;102530.44;;;16.20;100.00
56292;BME280;54008;53.606;9.462;2022-08-11T02:07:59;102528.31;;;16.22;100.00
56292;BME280;54008;53.606;9.462;2022-08-11T02:10:50;102525.06;;;16.26;100.00
56292;BME280;54008;53.606;9.462;2022-08-11T02:16:21;102530.06;;;16.17;100.00
56292;BME280;54008;53.606;9.462;2022-08-11T02:22:12;102523.81;;;16.40;100.00
56292;BME280;54008;53.606;9.462;2022-08-11T02:27:40;102522.38;;;16.19;100.00
56292;BME280;54008;53.606;9.462;2022-08-11T02:30:15;102520.09;;;16.16;100.00
56292;BME280;54008;53.606;9.462;2022-08-11T02:32:57;102521.41;;;16.13;100.00
56292;BME280;54008;53.606;9.462;2022-08-11T02:35:56;102519.69;;;16.12;100.00
56292;BME280;54008;53.606;9.462;2022-08-11T02:43:53;102526.88;;;16.02;100.00
56292;BME280;54008;53.606;9.462;2022-08-11T02:46:23;102520.34;;;15.96;100.00
56292;BME280;54008;53.606;9.462;2022-08-11T02:48:58;102520.09;;;15.97;100.00
56292;BME280;54008;53.606;9.462;2022-08-11T02:51:48;102521.25;;;15.90;100.00
56292;BME280;54008;53.606;9.462;2022-08-11T02:54:30;102529.81;;;15.88;100.00
56292;BME280;54008;53.606;9.462;2022-08-11T02:57:01;102531.56;;;15.83;100.00
56292;BME280;54008;53.606;9.462;2022-08-11T02:59:59;102531.88;;;15.74;100.00
56292;BME280;54008;53.606;9.462;2022-08-11T03:02:42;102532.78;;;15.87;100.00
56292;BME280;54008;53.606;9.462;2022-08-11T03:07:58;102532.81;;;15.68;100.00
56292;BME280;54008;53.606;9.462;2022-08-11T03:14:08;102535.63;;;15.62;100.00
56292;BME280;54008;53.606;9.462;2022-08-11T03:18:17;102539.97;;;15.51;100.00
56292;BME280;54008;53.606;9.462;2022-08-11T03:25:52;102540.03;;;15.44;100.00
56292;BME280;54008;53.606;9.462;2022-08-11T03:28:31;102538.56;;;15.42;100.00
56292;BME280;54008;53.606;9.462;2022-08-11T03:31:07;102535.19;;;15.40;100.00
56292;BME280;54008;53.606;9.462;2022-08-11T03:33:42;102534.72;;;15.24;100.00
56292;BME280;54008;53.606;9.462;2022-08-11T03:39:36;102541.13;;;15.18;100.00
56292;BME280;54008;53.606;9.462;2022-08-11T03:45:02;102541.97;;;15.19;100.00
56292;BME280;54008;53.606;9.462;2022-08-11T03:50:46;102547.91;;;15.22;100.00
56292;BME280;54008;53.606;9.462;2022-08-11T03:53:19;102546.66;;;15.18;100.00
56292;BME280;54008;53.606;9.462;2022-08-11T04:09:59;102549.09;;;15.08;100.00
56292;BME280;54008;53.606;9.462;2022-08-11T04:13:12;102551.41;;;15.11;100.00
56292;BME280;54008;53.606;9.462;2022-08-11T04:16:15;102546.41;;;15.01;100.00
56292;BME280;54008;53.606;9.462;2022-08-11T04:25:14;102549.28;;;15.13;100.00
56292;BME280;54008;53.606;9.462;2022-08-11T04:30:16;102543.47;;;15.21;100.00
56292;BME280;54008;53.606;9.462;2022-08-11T04:35:33;102552.66;;;15.15;100.00
56292;BME280;54008;53.606;9.462;2022-08-11T04:38:21;102543.47;;;15.21;100.00
56292;BME280;54008;53.606;9.462;2022-08-11T04:52:42;102550.25;;;15.44;100.00
56292;BME280;54008;53.606;9.462;2022-08-11T04:59:14;102536.88;;;15.66;100.00
56292;BME280;54008;53.606;9.462;2022-08-11T05:10:44;102543.25;;;16.03;100.00
56292;BME280;54008;53.606;9.462;2022-08-11T05:13:23;102545.00;;;15.97;100.00
56292;BME280;54008;53.606;9.462;2022-08-11T05:16:10;102546.25;;;16.02;100.00
56292;BME280;54008;53.606;9.462;2022-08-11T05:18:56;102546.00;;;16.21;100.00
56292;BME280;54008;53.606;9.462;2022-08-11T05:21:45;102538.13;;;16.67;100.00
56292;BME280;54008;53.606;9.462;2022-08-11T05:25:09;102531.91;;;16.83;100.00
56292;BME280;54008;53.606;9.462;2022-08-11T05:28:02;102526.28;;;17.25;100.00
56292;BME280;54008;53.606;9.462;2022-08-11T05:30:49;102524.50;;;17.42;100.00
56292;BME280;54008;53.606;9.462;2022-08-11T05:33:48;102529.19;;;17.65;100.00
56292;BME280;54008;53.606;9.462;2022-08-11T05:36:48;102527.13;;;17.84;100.00
56292;BME280;54008;53.606;9.462;2022-08-11T05:39:17;102529.69;;;17.86;100.00
56292;BME280;54008;53.606;9.462;2022-08-11T05:42:04;102521.38;;;18.14;100.00
56292;BME280;54008;53.606;9.462;2022-08-11T05:44:50;102522.88;;;18.34;100.00
56292;BME280;54008;53.606;9.462;2022-08-11T05:47:36;102522.63;;;18.35;100.00
56292;BME280;54008;53.606;9.462;2022-08-11T05:50:22;102520.97;;;18.51;100.00
56292;BME280;54008;53.606;9.462;2022-08-11T05:53:09;102517.78;;;18.59;100.00
56292;BME280;54008;53.606;9.462;2022-08-11T05:55:55;102513.22;;;18.82;100.00
56292;BME280;54008;53.606;9.462;2022-08-11T05:58:42;102512.47;;;18.86;100.00
56292;BME280;54008;53.606;9.462;2022-08-11T06:01:13;102518.03;;;19.03;100.00
56292;BME280;54008;53.606;9.462;2022-08-11T06:03:44;102519.88;;;19.14;100.00
56292;BME280;54008;53.606;9.462;2022-08-11T06:06:33;102520.56;;;19.22;100.00
56292;BME280;54008;53.606;9.462;2022-08-11T06:08:59;102523.66;;;19.42;100.00
56292;BME280;54008;53.606;9.462;2022-08-11T06:11:25;102515.13;;;19.66;100.00
56292;BME280;54008;53.606;9.462;2022-08-11T06:13:53;102514.63;;;19.69;100.00
56292;BME280;54008;53.606;9.462;2022-08-11T06:16:22;102514.59;;;19.52;100.00
56292;BME280;54008;53.606;9.462;2022-08-11T06:18:49;102518.94;;;19.43;100.00
56292;BME280;54008;53.606;9.462;2022-08-11T06:21:15;102509.16;;;19.79;100.00
56292;BME280;54008;53.606;9.462;2022-08-11T06:23:42;102510.53;;;19.98;100.00
56292;BME280;54008;53.606;9.462;2022-08-11T06:26:09;102506.81;;;20.15;100.00
56292;BME280;54008;53.606;9.462;2022-08-11T06:28:37;102511.13;;;20.27;100.00
56292;BME280;54008;53.606;9.462;2022-08-11T06:31:12;102503.53;;;20.45;100.00
56292;BME280;54008;53.606;9.462;2022-08-11T06:36:22;102503.25;;;20.46;100.00
56292;BME280;54008;53.606;9.462;2022-08-11T06:39:08;102499.91;;;20.71;100.00
56292;BME280;54008;53.606;9.462;2022-08-11T06:41:52;102504.22;;;20.57;100.00
56292;BME280;54008;53.606;9.462;2022-08-11T06:44:39;102496.88;;;20.73;100.00
56292;BME280;54008;53.606;9.462;2022-08-11T06:47:10;102506.00;;;20.95;100.00
56292;BME280;54008;53.606;9.462;2022-08-11T06:49:43;102506.38;;;21.09;100.00
56292;BME280;54008;53.606;9.462;2022-08-11T06:52:34;102506.16;;;21.16;100.00
56292;BME280;54008;53.606;9.462;2022-08-11T06:55:05;102504.88;;;20.96;100.00
56292;BME280;54008;53.606;9.462;2022-08-11T06:57:33;102513.34;;;21.06;100.00
56292;BME280;54008;53.606;9.462;2022-08-11T07:00:18;102510.13;;;21.25;100.00
56292;BME280;54008;53.606;9.462;2022-08-11T07:03:07;102501.88;;;21.40;100.00
56292;BME280;54008;53.606;9.462;2022-08-11T07:05:55;102499.66;;;21.42;100.00
56292;BME280;54008;53.606;9.462;2022-08-11T07:14:20;102502.28;;;21.64;100.00
56292;BME280;54008;53.606;9.462;2022-08-11T07:17:13;102508.72;;;21.65;100.00
56292;BME280;54008;53.606;9.462;2022-08-11T07:19:42;102510.00;;;21.99;100.00
56292;BME280;54008;53.606;9.462;2022-08-11T07:22:31;102514.13;;;21.82;100.00
56292;BME280;54008;53.606;9.462;2022-08-11T07:25:15;102508.78;;;21.80;100.00
56292;BME280;54008;53.606;9.462;2022-08-11T07:28:11;102512.53;;;21.96;100.00
56292;BME280;54008;53.606;9.462;2022-08-11T07:31:03;102514.38;;;21.75;100.00
56292;BME280;54008;53.606;9.462;2022-08-11T07:33:47;102512.69;;;21.74;100.00
56292;BME280;54008;53.606;9.462;2022-08-11T07:36:14;102514.97;;;21.82;100.00
56292;BME280;54008;53.606;9.462;2022-08-11T07:38:47;102506.53;;;21.72;100.00
56292;BME280;54008;53.606;9.462;2022-08-11T07:41:17;102515.03;;;22.02;100.00
56292;BME280;54008;53.606;9.462;2022-08-11T07:43:47;102512.19;;;21.87;100.00
56292;BME280;54008;53.606;9.462;2022-08-11T07:46:14;102512.00;;;22.09;100.00
56292;BME280;54008;53.606;9.462;2022-08-11T07:48:59;102506.22;;;22.26;100.00
56292;BME280;54008;53.606;9.462;2022-08-11T07:51:44;102510.63;;;22.12;100.00
56292;BME280;54008;53.606;9.462;2022-08-11T07:54:29;102512.03;;;22.14;100.00
56292;BME280;54008;53.606;9.462;2022-08-11T07:56:55;102518.94;;;22.01;100.00
56292;BME280;54008;53.606;9.462;2022-08-11T07:59:22;102512.94;;;22.30;100.00
56292;BME280;54008;53.606;9.462;2022-08-11T08:02:08;102513.53;;;22.58;100.00
56292;BME280;54008;53.606;9.462;2022-08-11T08:04:53;102510.16;;;22.35;100.00
56292;BME280;54008;53.606;9.462;2022-08-11T08:07:38;102510.22;;;22.76;100.00
56292;BME280;54008;53.606;9.462;2022-08-11T08:10:22;102522.19;;;22.46;100.00
56292;BME280;54008;53.606;9.462;2022-08-11T08:13:06;102514.41;;;22.68;100.00
56292;BME280;54008;53.606;9.462;2022-08-11T08:15:54;102517.75;;;22.81;100.00
56292;BME280;54008;53.606;9.462;2022-08-11T08:18:39;102515.00;;;23.01;100.00
56292;BME280;54008;53.606;9.462;2022-08-11T08:21:05;102512.78;;;22.93;100.00
56292;BME280;54008;53.606;9.462;2022-08-11T08:23:41;102515.84;;;22.91;100.00
56292;BME280;54008;53.606;9.462;2022-08-11T08:26:09;102512.78;;;22.98;100.00
56292;BME280;54008;53.606;9.462;2022-08-11T08:28:57;102504.63;;;22.96;100.00
56292;BME280;54008;53.606;9.462;2022-08-11T08:31:46;102512.50;;;23.05;100.00
56292;BME280;54008;53.606;9.462;2022-08-11T08:34:14;102513.28;;;22.80;100.00
56292;BME280;54008;53.606;9.462;2022-08-11T08:36:45;102508.81;;;23.25;100.00
56292;BME280;54008;53.606;9.462;2022-08-11T08:39:12;102502.91;;;23.41;100.00
56292;BME280;54008;53.606;9.462;2022-08-11T08:41:38;102506.25;;;23.48;100.00
56292;BME280;54008;53.606;9.462;2022-08-11T08:44:09;102506.25;;;23.48;100.00
56292;BME280;54008;53.606;9.462;2022-08-11T08:46:39;102505.72;;;23.36;100.00
56292;BME280;54008;53.606;9.462;2022-08-11T08:49:09;102510.78;;;23.14;100.00
56292;BME280;54008;53.606;9.462;2022-08-11T08:51:40;102502.66;;;23.33;100.00
56292;BME280;54008;53.606;9.462;2022-08-11T08:54:16;102507.38;;;23.68;100.00
56292;BME280;54008;53.606;9.462;2022-08-11T08:56:44;102505.09;;;23.60;100.00
56292;BME280;54008;53.606;9.462;2022-08-11T08:59:12;102507.34;;;23.58;100.00
56292;BME280;54008;53.606;9.462;2022-08-11T09:02:02;102503.41;;;23.79;100.00
56292;BME280;54008;53.606;9.462;2022-08-11T09:04:28;102501.81;;;24.17;100.00
56292;BME280;54008;53.606;9.462;2022-08-11T09:07:02;102500.69;;;24.18;100.00
56292;BME280;54008;53.606;9.462;2022-08-11T09:09:31;102501.91;;;24.02;100.00
56292;BME280;54008;53.606;9.462;2022-08-11T09:11:57;102499.53;;;24.19;100.00
56292;BME280;54008;53.606;9.462;2022-08-11T09:14:25;102502.13;;;24.11;100.00
56292;BME280;54008;53.606;9.462;2022-08-11T09:17:14;102497.78;;;24.34;100.00
56292;BME280;54008;53.606;9.462;2022-08-11T09:19:39;102491.88;;;24.40;100.00
56292;BME280;54008;53.606;9.462;2022-08-11T09:22:05;102496.88;;;24.54;100.00
56292;BME280;54008;53.606;9.462;2022-08-11T09:24:50;102495.66;;;24.65;100.00
56292;BME280;54008;53.606;9.462;2022-08-11T09:27:35;102487.63;;;24.87;100.00
56292;BME280;54008;53.606;9.462;2022-08-11T09:30:04;102490.94;;;24.95;100.00
56292;BME280;54008;53.606;9.462;2022-08-11T09:32:31;102487.88;;;24.86;100.00
56292;BME280;54008;53.606;9.462;2022-08-11T09:35:00;102489.47;;;24.97;100.00
56292;BME280;54008;53.606;9.462;2022-08-11T09:37:29;102485.78;;;25.02;100.00
56292;BME280;54008;53.606;9.462;2022-08-11T09:40:14;102475.88;;;25.09;100.00
56292;BME280;54008;53.606;9.462;2022-08-11T09:43:00;102474.78;;;25.39;100.00
56292;BME280;54008;53.606;9.462;2022-08-11T09:45:46;102476.34;;;25.51;100.00
56292;BME280;54008;53.606;9.462;2022-08-11T09:48:17;102471.00;;;25.25;100.00
56292;BME280;54008;53.606;9.462;2022-08-11T09:50:44;102464.72;;;25.33;100.00
56292;BME280;54008;53.606;9.462;2022-08-11T09:53:14;102464.13;;;25.07;100.00
56292;BME280;54008;53.606;9.462;2022-08-11T09:55:40;102453.69;;;25.13;100.00
56292;BME280;54008;53.606;9.462;2022-08-11T09:58:07;102463.72;;;25.48;100.00
56292;BME280;54008;53.606;9.462;2022-08-11T10:00:39;102451.28;;;25.78;100.00
56292;BME280;54008;53.606;9.462;2022-08-11T10:03:20;102447.72;;;25.68;100.00
56292;BME280;54008;53.606;9.462;2022-08-11T10:05:48;102443.25;;;25.43;100.00
56292;BME280;54008;53.606;9.462;2022-08-11T10:08:34;102439.53;;;25.71;100.00
56292;BME280;54008;53.606;9.462;2022-08-11T10:11:02;102434.47;;;25.73;100.00
56292;BME280;54008;53.606;9.462;2022-08-11T10:13:32;102436.72;;;25.71;100.00
56292;BME280;54008;53.606;9.462;2022-08-11T10:16:04;102436.84;;;25.61;100.00
56292;BME280;54008;53.606;9.462;2022-08-11T10:18:39;102427.59;;;25.60;100.00
56292;BME280;54008;53.606;9.462;2022-08-11T10:21:44;102435.41;;;25.87;100.00
56292;BME280;54008;53.606;9.462;2022-08-11T10:24:31;102431.63;;;26.16;100.00
56292;BME280;54008;53.606;9.462;2022-08-11T10:27:16;102428.81;;;26.16;100.00
56292;BME280;54008;53.606;9.462;2022-08-11T10:29:41;102420.28;;;26.21;100.00
56292;BME280;54008;53.606;9.462;2022-08-11T10:32:27;102415.94;;;26.29;100.00
56292;BME280;54008;53.606;9.462;2022-08-11T10:35:16;102417.56;;;26.54;100.00
56292;BME280;54008;53.606;9.462;2022-08-11T10:37:43;102411.75;;;26.64;100.00
56292;BME280;54008;53.606;9.462;2022-08-11T10:40:14;102416.56;;;26.64;100.00
56292;BME280;54008;53.606;9.462;2022-08-11T10:42:40;102416.00;;;26.62;100.00
56292;BME280;54008;53.606;9.462;2022-08-11T10:45:25;102408.38;;;26.95;100.00
56292;BME280;54008;53.606;9.462;2022-08-11T10:48:08;102414.28;;;26.47;100.00
56292;BME280;54008;53.606;9.462;2022-08-11T10:50:36;102408.66;;;26.47;100.00
56292;BME280;54008;53.606;9.462;2022-08-11T10:53:21;102410.16;;;26.58;100.00
56292;BME280;54008;53.606;9.462;2022-08-11T10:56:06;102403.13;;;26.74;100.00
56292;BME280;54008;53.606;9.462;2022-08-11T10:58:51;102399.13;;;27.08;100.00
56292;BME280;54008;53.606;9.462;2022-08-11T11:01:23;102396.59;;;26.93;100.00
56292;BME280;54008;53.606;9.462;2022-08-11T11:03:51;102404.19;;;26.78;100.00
56292;BME280;54008;53.606;9.462;2022-08-11T11:09:32;102404.75;;;26.43;100.00
56292;BME280;54008;53.606;9.462;2022-08-11T11:12:02;102396.63;;;26.60;100.00
56292;BME280;54008;53.606;9.462;2022-08-11T11:14:50;102396.25;;;26.80;100.00
56292;BME280;54008;53.606;9.462;2022-08-11T11:17:44;102390.09;;;26.78;100.00
56292;BME280;54008;53.606;9.462;2022-08-11T11:22:54;102396.00;;;26.63;100.00
56292;BME280;54008;53.606;9.462;2022-08-11T11:28:06;102391.59;;;27.03;100.00
56292;BME280;54008;53.606;9.462;2022-08-11T11:30:42;102395.44;;;26.94;100.00
56292;BME280;54008;53.606;9.462;2022-08-11T11:33:20;102394.00;;;27.10;100.00
56292;BME280;54008;53.606;9.462;2022-08-11T11:36:09;102386.91;;;26.99;100.00
56292;BME280;54008;53.606;9.462;2022-08-11T11:38:36;102389.09;;;27.02;100.00
56292;BME280;54008;53.606;9.462;2022-08-11T11:41:02;102387.53;;;27.10;100.00
56292;BME280;54008;53.606;9.462;2022-08-11T11:43:46;102380.91;;;27.19;100.00
56292;BME280;54008;53.606;9.462;2022-08-11T11:46:12;102385.88;;;27.22;100.00
56292;BME280;54008;53.606;9.462;2022-08-11T11:48:39;102384.50;;;27.06;100.00
56292;BME280;54008;53.606;9.462;2022-08-11T11:51:09;102391.72;;;27.26;100.00
56292;BME280;54008;53.606;9.462;2022-08-11T11:53:42;102388.31;;;27.15;100.00
56292;BME280;54008;53.606;9.462;2022-08-11T11:56:10;102387.94;;;27.03;100.00
56292;BME280;54008;53.606;9.462;2022-08-11T11:58:37;102381.31;;;27.13;100.00
56292;BME280;54008;53.606;9.462;2022-08-11T12:01:23;102383.66;;;27.05;100.00
56292;BME280;54008;53.606;9.462;2022-08-11T12:03:51;102377.16;;;27.38;100.00
56292;BME280;54008;53.606;9.462;2022-08-11T12:06:19;102378.06;;;27.47;100.00
56292;BME280;54008;53.606;9.462;2022-08-11T12:08:48;102378.81;;;27.39;100.00
56292;BME280;54008;53.606;9.462;2022-08-11T12:11:14;102368.78;;;27.33;100.00
56292;BME280;54008;53.606;9.462;2022-08-11T12:14:02;102379.63;;;27.25;100.00
56292;BME280;54008;53.606;9.462;2022-08-11T12:16:28;102369.63;;;27.19;100.00
56292;BME280;54008;53.606;9.462;2022-08-11T12:18:57;102360.66;;;27.31;100.00
56292;BME280;54008;53.606;9.462;2022-08-11T12:21:25;102367.91;;;27.60;100.00
56292;BME280;54008;53.606;9.462;2022-08-11T12:23:54;102359.38;;;27.37;100.00
56292;BME280;54008;53.606;9.462;2022-08-11T12:26:39;102358.59;;;27.73;100.00
56292;BME280;54008;53.606;9.462;2022-08-11T12:29:16;102363.53;;;27.67;100.00
56292;BME280;54008;53.606;9.462;2022-08-11T12:31:44;102353.28;;;27.71;100.00
56292;BME280;54008;53.606;9.462;2022-08-11T12:34:11;102357.41;;;28.01;100.00
56292;BME280;54008;53.606;9.462;2022-08-11T12:36:41;102354.34;;;27.75;100.00
56292;BME280;54008;53.606;9.462;2022-08-11T12:39:10;102351.16;;;27.91;100.00
56292;BME280;54008;53.606;9.462;2022-08-11T12:41:37;102360.06;;;27.70;100.00
56292;BME280;54008;53.606;9.462;2022-08-11T12:44:25;102350.97;;;27.73;100.00
56292;BME280;54008;53.606;9.462;2022-08-11T12:47:10;102336.34;;;27.85;100.00
56292;BME280;54008;53.606;9.462;2022-08-11T12:49:43;102333.84;;;27.84;100.00
56292;BME280;54008;53.606;9.462;2022-08-11T12:52:33;102330.53;;;27.68;100.00
56292;BME280;54008;53.606;9.462;2022-08-11T12:55:02;102336.81;;;27.78;100.00
56292;BME280;54008;53.606;9.462;2022-08-11T12:57:38;102327.28;;;27.74;100.00
56292;BME280;54008;53.606;9.462;2022-08-11T13:00:25;102317.44;;;27.86;100.00
56292;BME280;54008;53.606;9.462;2022-08-11T13:03:12;102318.19;;;27.77;100.00
56292;BME280;54008;53.606;9.462;2022-08-11T13:05:59;102318.31;;;28.09;100.00
56292;BME280;54008;53.606;9.462;2022-08-11T13:08:27;102315.28;;;27.83;100.00
56292;BME280;54008;53.606;9.462;2022-08-11T13:10:54;102308.41;;;27.75;100.00
56292;BME280;54008;53.606;9.462;2022-08-11T13:13:40;102307.00;;;27.72;100.00
56292;BME280;54008;53.606;9.462;2022-08-11T13:16:07;102298.84;;;27.71;100.00
56292;BME280;54008;53.606;9.462;2022-08-11T13:18:34;102312.94;;;27.85;100.00
56292;BME280;54008;53.606;9.462;2022-08-11T13:20:59;102301.81;;;27.79;100.00
56292;BME280;54008;53.606;9.462;2022-08-11T13:23:25;102310.13;;;28.07;100.00
56292;BME280;54008;53.606;9.462;2022-08-11T13:25:52;102297.19;;;27.84;100.00
56292;BME280;54008;53.606;9.462;2022-08-11T13:28:19;102293.84;;;27.82;100.00
56292;BME280;54008;53.606;9.462;2022-08-11T13:30:46;102290.28;;;27.90;100.00
56292;BME280;54008;53.606;9.462;2022-08-11T13:33:32;102294.44;;;27.92;100.00
56292;BME280;54008;53.606;9.462;2022-08-11T13:35:58;102286.16;;;27.96;100.00
56292;BME280;54008;53.606;9.462;2022-08-11T13:38:24;102281.97;;;27.93;100.00
56292;BME280;54008;53.606;9.462;2022-08-11T13:40:51;102282.56;;;28.04;100.00
56292;BME280;54008;53.606;9.462;2022-08-11T13:43:19;102286.59;;;28.12;100.00
56292;BME280;54008;53.606;9.462;2022-08-11T13:45:46;102279.81;;;28.13;100.00
56292;BME280;54008;53.606;9.462;2022-08-11T13:48:12;102280.47;;;28.10;100.00
56292;BME280;54008;53.606;9.462;2022-08-11T13:50:40;102279.81;;;28.13;100.00
56292;BME280;54008;53.606;9.462;2022-08-11T13:53:25;102285.50;;;28.21;100.00
56292;BME280;54008;53.606;9.462;2022-08-11T13:55:52;102277.81;;;28.13;100.00
56292;BME280;54008;53.606;9.462;2022-08-11T13:58:18;102273.22;;;28.17;100.00
56292;BME280;54008;53.606;9.462;2022-08-11T14:00:48;102266.66;;;28.08;100.00
56292;BME280;54008;53.606;9.462;2022-08-11T14:03:16;102270.16;;;28.05;100.00
56292;BME280;54008;53.606;9.462;2022-08-11T14:05:48;102261.97;;;28.03;100.00
56292;BME280;54008;53.606;9.462;2022-08-11T14:08:20;102260.13;;;28.21;100.00
56292;BME280;54008;53.606;9.462;2022-08-11T14:10:48;102257.63;;;28.20;100.00
56292;BME280;54008;53.606;9.462;2022-08-11T14:13:39;102254.16;;;28.00;100.00
56292;BME280;54008;53.606;9.462;2022-08-11T14:16:10;102250.97;;;28.16;100.00
56292;BME280;54008;53.606;9.462;2022-08-11T14:18:42;102257.94;;;28.18;100.00
56292;BME280;54008;53.606;9.462;2022-08-11T14:21:12;102244.28;;;28.12;100.00
56292;BME280;54008;53.606;9.462;2022-08-11T14:23:58;102244.47;;;27.93;100.00
56292;BME280;54008;53.606;9.462;2022-08-11T14:26:25;102247.44;;;28.10;100.00
56292;BME280;54008;53.606;9.462;2022-08-11T14:29:15;102250.38;;;28.27;100.00
56292;BME280;54008;53.606;9.462;2022-08-11T14:31:46;102245.56;;;28.28;100.00
56292;BME280;54008;53.606;9.462;2022-08-11T14:34:12;102243.81;;;28.18;100.00
56292;BME280;54008;53.606;9.462;2022-08-11T14:36:48;102243.25;;;28.08;100.00
56292;BME280;54008;53.606;9.462;2022-08-11T14:39:17;102246.03;;;27.99;100.00
56292;BME280;54008;53.606;9.462;2022-08-11T14:41:45;102236.09;;;28.01;100.00
56292;BME280;54008;53.606;9.462;2022-08-11T14:44:31;102241.03;;;27.96;100.00
56292;BME280;54008;53.606;9.462;2022-08-11T14:47:17;102233.09;;;27.98;100.00
56292;BME280;54008;53.606;9.462;2022-08-11T14:49:43;102227.94;;;28.00;100.00
56292;BME280;54008;53.606;9.462;2022-08-11T14:52:12;102230.50;;;28.10;100.00
56292;BME280;54008;53.606;9.462;2022-08-11T14:54:41;102223.56;;;28.16;100.00
56292;BME280;54008;53.606;9.462;2022-08-11T14:57:26;102226.13;;;28.04;100.00
56292;BME280;54008;53.606;9.462;2022-08-11T14:59:54;102214.97;;;27.90;100.00
56292;BME280;54008;53.606;9.462;2022-08-11T15:02:22;102216.25;;;28.15;100.00
56292;BME280;54008;53.606;9.462;2022-08-11T15:05:06;102214.09;;;28.12;100.00
56292;BME280;54008;53.606;9.462;2022-08-11T15:07:32;102214.31;;;28.24;100.00
56292;BME280;54008;53.606;9.462;2022-08-11T15:10:00;102222.06;;;28.19;100.00
56292;BME280;54008;53.606;9.462;2022-08-11T15:12:28;102211.81;;;28.23;100.00
56292;BME280;54008;53.606;9.462;2022-08-11T15:14:54;102218.94;;;28.20;100.00
56292;BME280;54008;53.606;9.462;2022-08-11T15:17:39;102203.69;;;28.21;100.00
56292;BME280;54008;53.606;9.462;2022-08-11T15:20:08;102209.50;;;28.25;100.00
56292;BME280;54008;53.606;9.462;2022-08-11T15:22:52;102206.47;;;28.13;100.00
56292;BME280;54008;53.606;9.462;2022-08-11T15:25:37;102204.13;;;28.15;100.00
56292;BME280;54008;53.606;9.462;2022-08-11T15:28:06;102195.00;;;28.09;100.00
56292;BME280;54008;53.606;9.462;2022-08-11T15:30:53;102198.31;;;28.11;100.00
56292;BME280;54008;53.606;9.462;2022-08-11T15:33:39;102200.19;;;28.16;100.00
56292;BME280;54008;53.606;9.462;2022-08-11T15:36:25;102196.41;;;27.98;100.00
56292;BME280;54008;53.606;9.462;2022-08-11T15:39:20;102187.97;;;27.98;100.00
56292;BME280;54008;53.606;9.462;2022-08-11T15:41:56;102191.56;;;27.90;100.00
56292;BME280;54008;53.606;9.462;2022-08-11T15:44:47;102183.22;;;27.85;100.00
56292;BME280;54008;53.606;9.462;2022-08-11T15:47:41;102188.06;;;27.93;100.00
56292;BME280;54008;53.606;9.462;2022-08-11T15:50:13;102178.09;;;27.87;100.00